createdAt,value
2023-01-17T00:00:25.755Z,106.50
2023-01-17T00:01:25.649Z,245.70
2023-01-17T00:02:25.682Z,309.30
2023-01-17T00:03:25.688Z,288.40
2023-01-17T00:04:25.627Z,275.00
2023-01-17T00:05:25.641Z,289.50
2023-01-17T00:06:25.595Z,256.30
2023-01-17T00:07:25.586Z,74.50
2023-01-17T00:08:25.572Z,215.50
2023-01-17T00:09:25.550Z,341.10
2023-01-17T00:10:25.583Z,328.80
2023-01-17T00:11:25.536Z,357.90
2023-01-17T00:12:25.526Z,332.70
2023-01-17T00:13:25.503Z,358.20
2023-01-17T00:14:25.492Z,370.00
2023-01-17T00:15:25.576Z,378.10
2023-01-17T00:16:25.504Z,394.30
2023-01-17T00:17:25.503Z,387.40
2023-01-17T00:18:25.438Z,417.10
2023-01-17T00:19:25.452Z,420.00
2023-01-17T00:20:25.500Z,428.60
2023-01-17T00:21:25.430Z,441.50
2023-01-17T00:22:25.410Z,467.50
2023-01-17T00:23:25.419Z,413.80
2023-01-17T00:24:25.380Z,427.30
2023-01-17T00:25:25.422Z,415.20
2023-01-17T00:26:25.362Z,261.60
2023-01-17T00:27:25.372Z,574.10
2023-01-17T00:28:25.337Z,467.20
2023-01-17T00:29:25.387Z,469.70
2023-01-17T00:30:25.336Z,464.30
2023-01-17T00:31:25.338Z,256.90
2023-01-17T00:32:25.325Z,445.10
2023-01-17T00:33:25.311Z,386.90
2023-01-17T00:34:25.313Z,380.40
2023-01-17T00:35:25.260Z,367.50
2023-01-17T00:36:25.265Z,351.60
2023-01-17T00:37:25.273Z,245.70
2023-01-17T00:38:25.237Z,308.20
2023-01-17T00:39:25.292Z,525.60
2023-01-17T00:40:25.197Z,504.10
2023-01-17T00:41:25.228Z,553.10
2023-01-17T00:42:25.183Z,514.40
2023-01-17T00:43:25.195Z,559.30
2023-01-17T00:44:25.218Z,539.70
2023-01-17T00:45:25.171Z,522.40
2023-01-17T00:46:25.148Z,519.30
2023-01-17T00:47:25.122Z,503.80
2023-01-17T00:48:25.135Z,556.40
2023-01-17T00:49:25.156Z,541.80
2023-01-17T00:50:25.087Z,247.30
2023-01-17T00:51:25.070Z,655.70
2023-01-17T00:52:25.066Z,614.50
2023-01-17T00:53:25.051Z,651.70
2023-01-17T00:54:25.092Z,639.20
2023-01-17T00:55:25.036Z,639.40
2023-01-17T00:56:25.023Z,662.80
2023-01-17T00:57:25.028Z,853.30
2023-01-17T00:58:25.025Z,853.80
2023-01-17T00:59:25.026Z,783.00
2023-01-17T01:00:24.987Z,651.10
2023-01-17T01:01:25.179Z,999.90
2023-01-17T01:02:27.586Z,999.90
2023-01-17T01:03:24.936Z,999.90
2023-01-17T01:04:24.983Z,999.90
2023-01-17T01:05:24.935Z,990.90
2023-01-17T01:06:24.915Z,996.40
2023-01-17T01:07:24.905Z,999.90
2023-01-17T01:08:24.900Z,971.10
2023-01-17T01:09:24.929Z,926.40
2023-01-17T01:10:24.889Z,931.90
2023-01-17T01:11:24.857Z,919.70
2023-01-17T01:12:24.882Z,387.90
2023-01-17T01:13:24.847Z,999.90
2023-01-17T01:14:24.884Z,999.90
2023-01-17T01:15:24.836Z,956.70
2023-01-17T01:16:24.865Z,863.00
2023-01-17T01:17:24.783Z,830.20
2023-01-17T01:18:24.770Z,814.60
2023-01-17T01:19:27.050Z,429.40
2023-01-17T01:20:24.776Z,422.60
2023-01-17T01:21:24.770Z,951.80
2023-01-17T01:22:24.739Z,703.60
2023-01-17T01:23:24.752Z,752.50
2023-01-17T01:24:24.754Z,794.70
2023-01-17T01:25:24.752Z,782.60
2023-01-17T01:26:24.695Z,695.60
2023-01-17T01:27:24.686Z,511.80
2023-01-17T01:28:24.685Z,886.00
2023-01-17T01:29:24.731Z,801.50
2023-01-17T01:30:24.656Z,875.10
2023-01-17T01:31:24.758Z,832.00
2023-01-17T01:32:24.614Z,866.80
2023-01-17T01:33:24.622Z,699.40
2023-01-17T01:34:24.648Z,861.40
2023-01-17T01:35:24.610Z,905.30
2023-01-17T01:36:24.577Z,928.00
2023-01-17T01:37:24.584Z,911.10
2023-01-17T01:38:24.549Z,974.60
2023-01-17T01:39:24.607Z,946.30
2023-01-17T01:40:24.538Z,996.00
2023-01-17T01:41:24.509Z,916.50
2023-01-17T01:42:24.496Z,811.70
2023-01-17T01:43:24.493Z,999.90
2023-01-17T01:44:24.529Z,999.90
2023-01-17T01:45:24.491Z,999.90
2023-01-17T01:46:24.488Z,863.60
2023-01-17T01:47:24.483Z,999.90
2023-01-17T01:48:24.477Z,983.30
2023-01-17T01:49:24.486Z,999.90
2023-01-17T01:50:24.435Z,999.90
2023-01-17T01:51:24.408Z,999.90
2023-01-17T01:52:24.405Z,999.90
2023-01-17T01:53:24.394Z,999.90
2023-01-17T01:54:24.433Z,999.90
2023-01-17T01:55:24.385Z,999.90
2023-01-17T01:56:24.357Z,999.90
2023-01-17T01:57:24.366Z,999.90
2023-01-17T01:58:24.338Z,914.00
2023-01-17T01:59:24.375Z,999.90
2023-01-17T02:00:24.321Z,999.90
2023-01-17T02:01:24.402Z,999.90
2023-01-17T02:02:24.298Z,999.90
2023-01-17T02:03:24.272Z,999.90
2023-01-17T02:04:24.312Z,999.90
2023-01-17T02:05:24.269Z,999.90
2023-01-17T02:06:24.239Z,999.90
2023-01-17T02:07:24.239Z,999.90
2023-01-17T02:08:24.209Z,999.90
2023-01-17T02:09:24.236Z,999.90
2023-01-17T02:10:24.188Z,999.90
2023-01-17T02:11:24.188Z,999.90
2023-01-17T02:12:24.169Z,999.90
2023-01-17T02:13:24.174Z,999.90
2023-01-17T02:14:24.189Z,999.90
2023-01-17T02:15:24.144Z,999.90
2023-01-17T02:16:24.164Z,999.90
2023-01-17T02:17:24.107Z,999.90
2023-01-17T02:18:24.137Z,999.90
2023-01-17T02:19:24.162Z,999.90
2023-01-17T02:20:24.096Z,999.90
2023-01-17T02:21:24.078Z,999.90
2023-01-17T02:22:24.058Z,999.90
2023-01-17T02:23:24.053Z,999.90
2023-01-17T02:24:24.098Z,999.90
2023-01-17T02:25:24.033Z,999.90
2023-01-17T02:26:24.020Z,999.90
2023-01-17T02:27:24.034Z,999.90
2023-01-17T02:28:24.010Z,999.90
2023-01-17T02:29:23.991Z,999.90
2023-01-17T02:30:24.018Z,999.90
2023-01-17T02:31:23.984Z,999.90
2023-01-17T02:32:23.965Z,999.90
2023-01-17T02:33:23.956Z,291.80
2023-01-17T02:34:23.919Z,999.90
2023-01-17T02:35:23.963Z,999.90
2023-01-17T02:36:23.902Z,999.90
2023-01-17T02:37:23.875Z,999.90
2023-01-17T02:38:23.873Z,999.90
2023-01-17T02:39:23.876Z,999.90
2023-01-17T02:40:23.916Z,999.90
2023-01-17T02:41:23.865Z,999.90
2023-01-17T02:42:23.840Z,999.90
2023-01-17T02:43:23.841Z,999.90
2023-01-17T02:44:23.819Z,999.90
2023-01-17T02:45:23.833Z,999.90
2023-01-17T02:46:23.804Z,999.90
2023-01-17T02:47:23.809Z,999.90
2023-01-17T02:48:23.788Z,999.90
2023-01-17T02:49:23.771Z,999.90
2023-01-17T02:50:23.790Z,248.20
2023-01-17T02:51:23.751Z,999.90
2023-01-17T02:52:23.739Z,999.90
2023-01-17T02:53:23.710Z,443.00
2023-01-17T02:54:23.741Z,999.90
2023-01-17T02:55:23.742Z,999.90
2023-01-17T02:56:23.693Z,999.90
2023-01-17T02:57:23.669Z,525.80
2023-01-17T02:58:23.677Z,999.90
2023-01-17T02:59:23.666Z,999.90
2023-01-17T03:00:23.699Z,999.90
2023-01-17T03:01:23.706Z,999.90
2023-01-17T03:02:23.641Z,862.70
2023-01-17T03:03:23.596Z,441.90
2023-01-17T03:04:23.594Z,188.80
2023-01-17T03:05:23.639Z,999.90
2023-01-17T03:06:23.580Z,999.90
2023-01-17T03:07:23.573Z,999.90
2023-01-17T03:08:23.551Z,995.90
2023-01-17T03:09:23.551Z,999.90
2023-01-17T03:10:23.586Z,851.20
2023-01-17T03:11:23.529Z,889.40
2023-01-17T03:12:23.513Z,889.80
2023-01-17T03:13:23.491Z,999.90
2023-01-17T03:14:23.479Z,938.70
2023-01-17T03:15:23.540Z,315.40
2023-01-17T03:16:23.493Z,999.90
2023-01-17T03:17:23.459Z,818.20
2023-01-17T03:18:23.465Z,695.30
2023-01-17T03:19:23.486Z,554.50
2023-01-17T03:20:23.478Z,197.90
2023-01-17T03:21:23.416Z,752.70
2023-01-17T03:22:23.394Z,999.90
2023-01-17T03:23:23.402Z,864.30
2023-01-17T03:24:23.377Z,856.70
2023-01-17T03:25:23.405Z,792.50
2023-01-17T03:26:23.347Z,803.00
2023-01-17T03:27:23.334Z,834.50
2023-01-17T03:28:23.350Z,751.00
2023-01-17T03:29:23.295Z,576.10
2023-01-17T03:30:23.391Z,396.90
2023-01-17T03:31:23.279Z,143.40
2023-01-17T03:32:23.264Z,999.90
2023-01-17T03:33:23.284Z,999.90
2023-01-17T03:34:23.261Z,736.70
2023-01-17T03:35:23.288Z,630.80
2023-01-17T03:36:23.239Z,757.30
2023-01-17T03:37:23.218Z,690.20
2023-01-17T03:38:23.225Z,687.90
2023-01-17T03:39:23.198Z,151.70
2023-01-17T03:40:23.254Z,999.90
2023-01-17T03:41:23.178Z,798.70
2023-01-17T03:42:23.146Z,651.00
2023-01-17T03:43:23.158Z,555.80
2023-01-17T03:44:23.144Z,618.90
2023-01-17T03:45:23.163Z,652.70
2023-01-17T03:46:23.107Z,663.00
2023-01-17T03:47:23.114Z,999.90
2023-01-17T03:48:23.101Z,821.80
2023-01-17T03:49:23.101Z,677.20
2023-01-17T03:50:23.137Z,856.60
2023-01-17T03:51:23.063Z,328.90
2023-01-17T03:52:23.059Z,135.10
2023-01-17T03:53:23.033Z,161.10
2023-01-17T03:54:23.041Z,518.50
2023-01-17T03:55:23.078Z,945.00
2023-01-17T03:56:23.048Z,854.40
2023-01-17T03:57:22.996Z,844.50
2023-01-17T03:58:23.007Z,818.20
2023-01-17T03:59:22.954Z,733.50
2023-01-17T04:00:23.004Z,549.70
2023-01-17T04:01:23.091Z,271.50
2023-01-17T04:02:23.005Z,81.80
2023-01-17T04:03:22.953Z,113.80
2023-01-17T04:04:22.943Z,740.00
2023-01-17T04:05:22.956Z,665.20
2023-01-17T04:06:22.883Z,683.20
2023-01-17T04:07:22.858Z,649.10
2023-01-17T04:08:22.870Z,618.90
2023-01-17T04:09:22.855Z,465.50
2023-01-17T04:10:22.893Z,513.90
2023-01-17T04:11:22.833Z,615.70
2023-01-17T04:12:22.837Z,586.90
2023-01-17T04:13:22.810Z,376.40
2023-01-17T04:14:22.813Z,198.00
2023-01-17T04:15:22.861Z,274.60
2023-01-17T04:16:22.830Z,484.30
2023-01-17T04:17:22.778Z,690.60
2023-01-17T04:18:22.754Z,562.10
2023-01-17T04:19:22.752Z,482.70
2023-01-17T04:20:22.798Z,370.40
2023-01-17T04:21:22.722Z,324.40
2023-01-17T04:22:22.714Z,104.60
2023-01-17T04:23:22.678Z,546.50
2023-01-17T04:24:22.699Z,109.60
2023-01-17T04:25:22.733Z,367.60
2023-01-17T04:26:22.646Z,801.10
2023-01-17T04:27:22.634Z,718.90
2023-01-17T04:28:22.620Z,607.80
2023-01-17T04:29:22.617Z,581.10
2023-01-17T04:30:22.665Z,807.80
2023-01-17T04:31:22.636Z,87.40
2023-01-17T04:32:22.584Z,888.90
2023-01-17T04:33:22.576Z,553.20
2023-01-17T04:34:22.567Z,999.90
2023-01-17T04:35:22.605Z,999.90
2023-01-17T04:36:22.540Z,371.20
2023-01-17T04:37:22.537Z,323.10
2023-01-17T04:38:22.530Z,237.70
2023-01-17T04:39:22.501Z,999.90
2023-01-17T04:40:22.541Z,999.90
2023-01-17T04:41:22.484Z,999.90
2023-01-17T04:42:22.491Z,390.80
2023-01-17T04:43:22.465Z,115.50
2023-01-17T04:44:22.456Z,596.80
2023-01-17T04:45:22.479Z,999.90
2023-01-17T04:46:22.494Z,999.90
2023-01-17T04:47:22.425Z,41.70
2023-01-17T04:48:22.415Z,356.10
2023-01-17T04:49:22.413Z,999.90
2023-01-17T04:50:22.428Z,999.90
2023-01-17T04:51:22.364Z,309.00
2023-01-17T04:52:22.364Z,999.90
2023-01-17T04:53:22.346Z,693.50
2023-01-17T04:54:22.328Z,999.90
2023-01-17T04:55:22.364Z,999.90
2023-01-17T04:56:22.327Z,999.90
2023-01-17T04:57:22.314Z,999.90
2023-01-17T04:58:22.313Z,999.90
2023-01-17T04:59:22.263Z,999.90
2023-01-17T05:00:24.143Z,999.90
2023-01-17T05:01:22.347Z,999.90
2023-01-17T05:02:22.314Z,999.90
2023-01-17T05:03:22.230Z,999.90
2023-01-17T05:04:22.235Z,999.90
2023-01-17T05:05:22.257Z,999.90
2023-01-17T05:06:22.213Z,999.90
2023-01-17T05:07:22.191Z,999.90
2023-01-17T05:08:22.161Z,999.90
2023-01-17T05:09:22.169Z,999.90
2023-01-17T05:10:22.211Z,316.10
2023-01-17T05:11:22.161Z,181.70
2023-01-17T05:12:22.121Z,496.80
2023-01-17T05:13:22.129Z,396.20
2023-01-17T05:14:22.108Z,457.10
2023-01-17T05:15:22.165Z,309.50
2023-01-17T05:16:22.078Z,290.70
2023-01-17T05:17:22.081Z,280.20
2023-01-17T05:18:22.080Z,200.20
2023-01-17T05:19:22.046Z,186.40
2023-01-17T05:20:22.092Z,206.80
2023-01-17T05:21:22.014Z,233.70
2023-01-17T05:22:22.005Z,203.40
2023-01-17T05:23:21.991Z,198.40
2023-01-17T05:24:21.963Z,163.90
2023-01-17T05:25:22.026Z,144.80
2023-01-17T05:26:21.967Z,164.80
2023-01-17T05:27:21.952Z,153.70
2023-01-17T05:28:21.944Z,139.30
2023-01-17T05:29:21.946Z,106.40
2023-01-17T05:30:21.971Z,165.40
2023-01-17T05:31:21.972Z,246.20
2023-01-17T05:32:21.898Z,266.20
2023-01-17T05:33:21.881Z,355.70
2023-01-17T05:34:21.866Z,339.10
2023-01-17T05:35:21.949Z,346.40
2023-01-17T05:36:21.839Z,214.40
2023-01-17T05:37:21.848Z,389.00
2023-01-17T05:38:21.830Z,404.10
2023-01-17T05:39:21.819Z,382.40
2023-01-17T05:40:21.866Z,382.10
2023-01-17T05:41:21.795Z,406.70
2023-01-17T05:42:21.790Z,152.90
2023-01-17T05:43:22.280Z,356.10
2023-01-17T05:44:21.779Z,476.40
2023-01-17T05:45:21.830Z,435.20
2023-01-17T05:46:21.791Z,448.00
2023-01-17T05:47:21.739Z,395.00
2023-01-17T05:48:21.693Z,423.30
2023-01-17T05:49:21.700Z,207.70
2023-01-17T05:50:21.743Z,402.50
2023-01-17T05:51:21.702Z,452.60
2023-01-17T05:52:21.682Z,503.80
2023-01-17T05:53:21.675Z,468.80
2023-01-17T05:54:21.646Z,398.80
2023-01-17T05:55:21.666Z,408.30
2023-01-17T05:56:21.695Z,256.00
2023-01-17T05:57:21.610Z,282.30
2023-01-17T05:58:21.618Z,395.30
2023-01-17T05:59:32.408Z,395.40
2023-01-17T06:00:22.625Z,431.90
2023-01-17T06:01:21.602Z,406.90
2023-01-17T06:02:21.604Z,362.70
2023-01-17T06:03:21.566Z,319.20
2023-01-17T06:04:21.595Z,326.30
2023-01-17T06:05:21.545Z,288.10
2023-01-17T06:06:21.555Z,294.20
2023-01-17T06:07:21.496Z,300.80
2023-01-17T06:08:21.491Z,331.40
2023-01-17T06:09:21.493Z,301.10
2023-01-17T06:10:21.492Z,285.30
2023-01-17T06:11:21.521Z,309.60
2023-01-17T06:12:22.132Z,306.20
2023-01-17T06:13:21.456Z,265.10
2023-01-17T06:14:21.434Z,270.50
2023-01-17T06:15:21.412Z,246.80
2023-01-17T06:16:21.460Z,207.10
2023-01-17T06:17:21.398Z,242.60
2023-01-17T06:18:21.381Z,241.30
2023-01-17T06:19:21.389Z,264.20
2023-01-17T06:20:21.374Z,264.00
2023-01-17T06:21:21.429Z,259.30
2023-01-17T06:22:21.351Z,258.60
2023-01-17T06:23:21.345Z,247.20
2023-01-17T06:24:21.337Z,268.60
2023-01-17T06:25:21.317Z,200.20
2023-01-17T06:26:21.347Z,264.10
2023-01-17T06:27:21.282Z,285.70
2023-01-17T06:28:21.276Z,318.50
2023-01-17T06:29:21.270Z,306.10
2023-01-17T06:30:21.263Z,295.30
2023-01-17T06:31:21.312Z,264.10
2023-01-17T06:32:21.229Z,203.40
2023-01-17T06:33:21.267Z,394.30
2023-01-17T06:34:21.211Z,489.00
2023-01-17T06:35:21.211Z,524.30
2023-01-17T06:36:21.268Z,527.00
2023-01-17T06:37:21.167Z,430.30
2023-01-17T06:38:21.183Z,157.00
2023-01-17T06:39:21.157Z,186.60
2023-01-17T06:40:21.158Z,95.30
2023-01-17T06:41:21.200Z,189.20
2023-01-17T06:42:21.103Z,491.90
2023-01-17T06:43:21.091Z,483.30
2023-01-17T06:44:21.088Z,482.20
2023-01-17T06:45:21.101Z,432.40
2023-01-17T06:46:21.158Z,437.10
2023-01-17T06:47:21.100Z,390.50
2023-01-17T06:48:21.052Z,356.30
2023-01-17T06:49:21.048Z,398.60
2023-01-17T06:50:21.061Z,321.70
2023-01-17T06:51:21.081Z,403.00
2023-01-17T06:52:21.016Z,230.30
2023-01-17T06:53:21.004Z,300.90
2023-01-17T06:54:21.008Z,294.30
2023-01-17T06:55:20.992Z,314.40
2023-01-17T06:56:21.006Z,404.10
2023-01-17T06:57:20.968Z,346.60
2023-01-17T06:58:20.960Z,318.10
2023-01-17T06:59:20.942Z,526.00
2023-01-17T07:00:20.977Z,671.40
2023-01-17T07:01:21.010Z,573.30
2023-01-17T07:02:20.915Z,551.00
2023-01-17T07:03:20.907Z,523.80
2023-01-17T07:04:20.879Z,550.50
2023-01-17T07:05:20.854Z,493.90
2023-01-17T07:06:20.883Z,487.30
2023-01-17T07:07:20.855Z,732.80
2023-01-17T07:08:20.863Z,587.20
2023-01-17T07:09:20.834Z,999.90
2023-01-17T07:10:20.808Z,999.90
2023-01-17T07:11:20.827Z,999.90
2023-01-17T07:12:20.794Z,999.90
2023-01-17T07:13:20.786Z,999.90
2023-01-17T07:14:20.759Z,999.90
2023-01-17T07:15:20.762Z,551.50
2023-01-17T07:16:20.823Z,999.90
2023-01-17T07:17:20.752Z,999.90
2023-01-17T07:18:20.781Z,999.90
2023-01-17T07:19:20.698Z,999.90
2023-01-17T07:20:20.718Z,999.90
2023-01-17T07:21:20.729Z,999.90
2023-01-17T07:22:20.680Z,999.90
2023-01-17T07:23:20.658Z,999.90
2023-01-17T07:24:20.619Z,999.90
2023-01-17T07:25:20.633Z,999.90
2023-01-17T07:26:20.672Z,999.90
2023-01-17T07:27:20.627Z,999.90
2023-01-17T07:28:20.583Z,999.90
2023-01-17T07:29:20.601Z,999.90
2023-01-17T07:30:20.572Z,999.90
2023-01-17T07:31:20.648Z,999.90
2023-01-17T07:32:20.557Z,999.90
2023-01-17T07:33:20.557Z,999.90
2023-01-17T07:34:20.535Z,999.90
2023-01-17T07:35:20.521Z,999.90
2023-01-17T07:36:20.567Z,999.90
2023-01-17T07:37:20.485Z,999.90
2023-01-17T07:38:20.479Z,999.90
2023-01-17T07:39:20.477Z,999.90
2023-01-17T07:40:20.457Z,999.90
2023-01-17T07:41:20.484Z,999.90
2023-01-17T07:42:21.680Z,999.90
2023-01-17T07:43:20.457Z,999.90
2023-01-17T07:44:20.424Z,999.90
2023-01-17T07:45:20.412Z,97.60
2023-01-17T07:46:20.473Z,999.90
2023-01-17T07:47:20.374Z,999.90
2023-01-17T07:48:20.382Z,597.20
2023-01-17T07:49:20.372Z,999.90
2023-01-17T07:50:20.336Z,999.90
2023-01-17T07:51:20.378Z,999.90
2023-01-17T07:52:20.311Z,999.90
2023-01-17T07:53:20.468Z,999.90
2023-01-17T07:54:20.362Z,999.90
2023-01-17T07:55:20.336Z,999.90
2023-01-17T07:56:20.309Z,999.90
2023-01-17T07:57:20.280Z,999.90
2023-01-17T07:58:20.265Z,999.90
2023-01-17T07:59:20.253Z,999.90
2023-01-17T08:00:20.240Z,999.90
2023-01-17T08:01:20.422Z,362.90
2023-01-17T08:02:20.216Z,999.90
2023-01-17T08:03:20.183Z,384.80
2023-01-17T08:04:20.194Z,999.90
2023-01-17T08:05:20.171Z,999.90
2023-01-17T08:06:20.231Z,295.10
2023-01-17T08:07:20.190Z,999.90
2023-01-17T08:08:20.168Z,999.90
2023-01-17T08:09:20.121Z,999.90
2023-01-17T08:10:20.118Z,999.90
2023-01-17T08:11:20.179Z,999.90
2023-01-17T08:12:20.106Z,999.90
2023-01-17T08:13:20.072Z,999.90
2023-01-17T08:14:20.072Z,999.90
2023-01-17T08:15:20.066Z,999.90
2023-01-17T08:16:20.130Z,999.90
2023-01-17T08:17:20.041Z,999.90
2023-01-17T08:18:20.016Z,907.80
2023-01-17T08:19:20.014Z,343.00
2023-01-17T08:20:20.009Z,375.10
2023-01-17T08:21:20.018Z,300.10
2023-01-17T08:22:20.028Z,999.90
2023-01-17T08:23:19.963Z,260.50
2023-01-17T08:24:19.956Z,847.40
2023-01-17T08:25:19.942Z,999.90
2023-01-17T08:26:19.949Z,79.10
2023-01-17T08:27:19.986Z,999.90
2023-01-17T08:28:19.959Z,999.90
2023-01-17T08:29:19.908Z,999.90
2023-01-17T08:30:19.879Z,999.90
2023-01-17T08:31:19.932Z,999.90
2023-01-17T08:32:19.931Z,999.90
2023-01-17T08:33:19.859Z,209.30
2023-01-17T08:34:19.850Z,215.80
2023-01-17T08:35:19.904Z,614.70
2023-01-17T08:36:19.836Z,999.90
2023-01-17T08:37:19.861Z,236.60
2023-01-17T08:38:19.805Z,383.20
2023-01-17T08:39:19.775Z,117.20
2023-01-17T08:40:20.575Z,703.60
2023-01-17T08:41:19.768Z,118.70
2023-01-17T08:42:19.809Z,999.90
2023-01-17T08:43:19.735Z,978.30
2023-01-17T08:44:19.730Z,999.90
2023-01-17T08:45:19.734Z,999.90
2023-01-17T08:46:19.722Z,999.90
2023-01-17T08:47:19.776Z,656.80
2023-01-17T08:48:19.684Z,864.30
2023-01-17T08:49:19.682Z,922.90
2023-01-17T08:50:19.673Z,999.90
2023-01-17T08:51:19.667Z,936.80
2023-01-17T08:52:19.697Z,725.80
2023-01-17T08:53:19.695Z,604.80
2023-01-17T08:54:19.630Z,530.20
2023-01-17T08:55:19.654Z,852.10
2023-01-17T08:56:19.598Z,932.20
2023-01-17T08:57:19.615Z,991.90
2023-01-17T08:58:19.581Z,999.90
2023-01-17T08:59:19.565Z,797.40
2023-01-17T09:00:19.576Z,752.00
2023-01-17T09:01:19.653Z,600.70
2023-01-17T09:02:19.603Z,495.30
2023-01-17T09:03:19.538Z,358.10
2023-01-17T09:04:19.600Z,710.90
2023-01-17T09:05:19.504Z,426.60
2023-01-17T09:06:19.478Z,860.70
2023-01-17T09:07:19.520Z,175.60
2023-01-17T09:08:19.457Z,172.30
2023-01-17T09:09:19.498Z,134.30
2023-01-17T09:10:19.443Z,142.30
2023-01-17T09:11:19.443Z,134.70
2023-01-17T09:12:19.448Z,627.00
2023-01-17T09:13:19.413Z,186.30
2023-01-17T09:14:19.448Z,229.20
2023-01-17T09:15:19.390Z,131.20
2023-01-17T09:16:19.387Z,142.60
2023-01-17T09:17:19.453Z,136.90
2023-01-17T09:18:19.379Z,158.20
2023-01-17T09:19:19.362Z,148.70
2023-01-17T09:20:19.340Z,141.90
2023-01-17T09:21:19.328Z,142.80
2023-01-17T09:22:19.355Z,147.00
2023-01-17T09:23:19.291Z,142.00
2023-01-17T09:24:19.287Z,161.30
2023-01-17T09:25:19.255Z,150.20
2023-01-17T09:26:19.293Z,192.10
2023-01-17T09:27:19.391Z,181.70
2023-01-17T09:28:19.236Z,150.70
2023-01-17T09:29:19.231Z,176.40
2023-01-17T09:30:19.212Z,157.50
2023-01-17T09:31:19.213Z,169.10
2023-01-17T09:32:19.266Z,155.30
2023-01-17T09:33:19.199Z,155.30
2023-01-17T09:34:19.174Z,147.30
2023-01-17T09:35:19.140Z,155.70
2023-01-17T09:36:19.171Z,155.20
2023-01-17T09:37:19.176Z,137.80
2023-01-17T09:38:19.132Z,134.00
2023-01-17T09:39:19.105Z,134.00
2023-01-17T09:40:19.103Z,133.10
2023-01-17T09:41:19.126Z,116.20
2023-01-17T09:42:19.148Z,139.90
2023-01-17T09:43:19.083Z,133.50
2023-01-17T09:44:19.064Z,120.90
2023-01-17T09:45:19.050Z,132.70
2023-01-17T09:46:19.029Z,154.10
2023-01-17T09:47:19.143Z,148.30
2023-01-17T09:48:19.033Z,152.10
2023-01-17T09:49:18.985Z,117.20
2023-01-17T09:50:19.018Z,125.30
2023-01-17T09:51:18.962Z,129.60
2023-01-17T09:52:19.014Z,143.60
2023-01-17T09:53:18.949Z,120.30
2023-01-17T09:54:18.951Z,147.60
2023-01-17T09:55:18.945Z,168.40
2023-01-17T09:56:18.918Z,119.90
2023-01-17T09:57:18.969Z,126.30
2023-01-17T09:58:18.884Z,149.20
2023-01-17T09:59:19.264Z,166.20
2023-01-17T10:00:18.875Z,169.10
2023-01-17T10:01:19.025Z,196.60
2023-01-17T10:02:19.226Z,171.70
2023-01-17T10:03:19.026Z,166.80
2023-01-17T10:04:18.950Z,143.40
2023-01-17T10:05:18.827Z,125.00
2023-01-17T10:06:18.833Z,99.80
2023-01-17T10:07:18.868Z,104.80
2023-01-17T10:08:18.811Z,132.20
2023-01-17T10:09:18.765Z,107.30
2023-01-17T10:10:18.808Z,104.40
2023-01-17T10:11:18.773Z,113.70
2023-01-17T10:12:18.784Z,79.20
2023-01-17T10:13:18.711Z,68.60
2023-01-17T10:14:18.721Z,69.80
2023-01-17T10:15:18.696Z,71.30
2023-01-17T10:16:18.721Z,59.10
2023-01-17T10:17:18.733Z,70.20
2023-01-17T10:18:29.212Z,44.40
2023-01-17T10:19:19.651Z,37.10
2023-01-17T10:20:18.660Z,38.00
2023-01-17T10:21:18.638Z,32.60
2023-01-17T10:22:18.694Z,34.00
2023-01-17T10:23:18.630Z,38.10
2023-01-17T10:24:18.606Z,42.90
2023-01-17T10:25:18.589Z,47.70
2023-01-17T10:26:18.607Z,43.00
2023-01-17T10:27:18.645Z,47.20
2023-01-17T10:28:18.574Z,50.00
2023-01-17T10:29:20.176Z,67.70
2023-01-17T10:30:18.551Z,62.80
2023-01-17T10:31:18.530Z,52.90
2023-01-17T10:32:18.591Z,46.30
2023-01-17T10:33:18.530Z,87.50
2023-01-17T10:34:18.488Z,32.70
2023-01-17T10:35:18.474Z,28.50
2023-01-17T10:36:18.480Z,33.40
2023-01-17T10:37:18.537Z,27.50
2023-01-17T10:38:18.461Z,29.90
2023-01-17T10:39:18.449Z,27.30
2023-01-17T10:40:18.419Z,26.40
2023-01-17T10:41:18.413Z,26.70
2023-01-17T10:42:18.446Z,20.90
2023-01-17T10:43:18.377Z,29.40
2023-01-17T10:44:18.386Z,27.90
2023-01-17T10:45:18.343Z,24.20
2023-01-17T10:46:18.403Z,20.50
2023-01-17T10:47:18.394Z,19.60
2023-01-17T10:48:18.352Z,20.80
2023-01-17T10:49:18.338Z,18.90
2023-01-17T10:50:18.338Z,18.90
2023-01-17T10:51:18.376Z,18.90
2023-01-17T10:52:18.345Z,17.10
2023-01-17T10:53:18.273Z,20.00
2023-01-17T10:54:18.285Z,19.30
2023-01-17T10:55:18.259Z,20.60
2023-01-17T10:56:18.272Z,19.20
2023-01-17T10:57:18.278Z,19.50
2023-01-17T10:58:18.215Z,17.40
2023-01-17T10:59:18.215Z,16.60
2023-01-17T11:00:18.247Z,18.30
2023-01-17T11:01:18.262Z,16.90
2023-01-17T11:02:18.404Z,21.90
2023-01-17T11:03:18.176Z,18.30
2023-01-17T11:04:18.145Z,19.10
2023-01-17T11:05:18.160Z,21.30
2023-01-17T11:06:18.135Z,18.80
2023-01-17T11:07:18.154Z,18.60
2023-01-17T11:08:18.119Z,21.70
2023-01-17T11:09:18.105Z,21.40
2023-01-17T11:10:18.066Z,23.30
2023-01-17T11:11:18.061Z,17.70
2023-01-17T11:12:18.130Z,20.40
2023-01-17T11:13:18.070Z,23.60
2023-01-17T11:14:18.031Z,23.00
2023-01-17T11:15:18.042Z,20.60
2023-01-17T11:16:18.012Z,19.00
2023-01-17T11:17:18.054Z,17.10
2023-01-17T11:18:17.979Z,17.80
2023-01-17T11:19:17.961Z,19.00
2023-01-17T11:20:17.994Z,17.80
2023-01-17T11:21:17.945Z,17.40
2023-01-17T11:22:17.950Z,17.10
2023-01-17T11:23:18.002Z,17.50
2023-01-17T11:24:17.930Z,22.20
2023-01-17T11:25:17.911Z,16.90
2023-01-17T11:26:17.893Z,22.30
2023-01-17T11:27:17.890Z,21.70
2023-01-17T11:28:17.925Z,22.90
2023-01-17T11:29:17.893Z,20.90
2023-01-17T11:30:17.893Z,24.70
2023-01-17T11:31:17.934Z,23.30
2023-01-17T11:32:17.824Z,23.90
2023-01-17T11:33:17.874Z,25.30
2023-01-17T11:34:17.820Z,24.70
2023-01-17T11:35:17.825Z,24.30
2023-01-17T11:36:17.801Z,24.80
2023-01-17T11:37:17.791Z,25.50
2023-01-17T11:38:17.807Z,20.00
2023-01-17T11:39:17.767Z,25.90
2023-01-17T11:40:17.765Z,22.70
2023-01-17T11:41:17.730Z,25.10
2023-01-17T11:42:17.734Z,26.60
2023-01-17T11:43:17.793Z,25.00
2023-01-17T11:44:17.685Z,25.60
2023-01-17T11:45:17.762Z,26.00
2023-01-17T11:46:17.757Z,25.20
2023-01-17T11:47:17.646Z,24.10
2023-01-17T11:48:17.740Z,24.60
2023-01-17T11:49:18.453Z,30.20
2023-01-17T11:50:17.646Z,27.50
2023-01-17T11:51:17.649Z,28.80
2023-01-17T11:52:17.651Z,25.90
2023-01-17T11:53:17.647Z,28.60
2023-01-17T11:54:17.581Z,23.80
2023-01-17T11:55:17.584Z,22.40
2023-01-17T11:56:17.564Z,24.30
2023-01-17T11:57:17.566Z,26.20
2023-01-17T11:58:17.625Z,28.80
2023-01-17T11:59:17.541Z,27.70
2023-01-17T12:00:17.529Z,28.70
2023-01-17T12:01:17.587Z,28.10
2023-01-17T12:02:17.505Z,27.30
2023-01-17T12:03:17.511Z,26.30
2023-01-17T12:04:17.465Z,24.10
2023-01-17T12:05:17.523Z,25.20
2023-01-17T12:06:17.462Z,22.30
2023-01-17T12:07:17.460Z,26.40
2023-01-17T12:08:17.510Z,24.70
2023-01-17T12:09:17.449Z,24.00
2023-01-17T12:10:17.430Z,24.50
2023-01-17T12:11:17.403Z,24.70
2023-01-17T12:12:17.387Z,23.30
2023-01-17T12:13:17.432Z,23.20
2023-01-17T12:14:17.387Z,28.80
2023-01-17T12:15:17.378Z,25.40
2023-01-17T12:16:17.350Z,25.30
2023-01-17T12:17:17.370Z,24.70
2023-01-17T12:18:17.372Z,27.10
2023-01-17T12:19:17.325Z,26.10
2023-01-17T12:20:17.319Z,27.30
2023-01-17T12:21:17.309Z,32.30
2023-01-17T12:22:17.297Z,32.60
2023-01-17T12:23:17.302Z,33.10
2023-01-17T12:24:17.274Z,33.20
2023-01-17T12:25:17.270Z,33.00
2023-01-17T12:26:17.233Z,35.00
2023-01-17T12:27:17.239Z,33.70
2023-01-17T12:28:17.245Z,45.50
2023-01-17T12:29:17.192Z,27.30
2023-01-17T12:30:17.182Z,30.80
2023-01-17T12:31:17.188Z,32.50
2023-01-17T12:32:17.183Z,31.60
2023-01-17T12:33:17.211Z,32.00